sensor_id;sensor_type;location;lat;lon;timestamp;P1;durP1;ratioP1;P2;durP2;ratioP2
40993;SDS011;26722;43.212;27.932;2023-02-01T00:01:33;19.20;;;9.07;;
40993;SDS011;26722;43.212;27.932;2023-02-01T00:03:58;21.42;;;10.20;;
40993;SDS011;26722;43.212;27.932;2023-02-01T00:06:24;17.77;;;8.48;;
40993;SDS011;26722;43.212;27.932;2023-02-01T00:08:52;19.23;;;9.45;;
40993;SDS011;26722;43.212;27.932;2023-02-01T00:11:19;17.80;;;8.48;;
40993;SDS011;26722;43.212;27.932;2023-02-01T00:13:45;19.65;;;9.77;;
40993;SDS011;26722;43.212;27.932;2023-02-01T00:16:11;19.88;;;9.38;;
40993;SDS011;26722;43.212;27.932;2023-02-01T00:18:41;18.38;;;8.40;;
40993;SDS011;26722;43.212;27.932;2023-02-01T00:21:07;24.85;;;10.45;;
40993;SDS011;26722;43.212;27.932;2023-02-01T00:23:35;20.95;;;10.10;;
40993;SDS011;26722;43.212;27.932;2023-02-01T00:26:02;21.40;;;9.77;;
40993;SDS011;26722;43.212;27.932;2023-02-01T00:28:28;17.15;;;8.25;;
40993;SDS011;26722;43.212;27.932;2023-02-01T00:31:00;15.35;;;7.15;;
40993;SDS011;26722;43.212;27.932;2023-02-01T00:33:27;16.05;;;7.43;;
40993;SDS011;26722;43.212;27.932;2023-02-01T00:36:00;22.50;;;9.73;;
40993;SDS011;26722;43.212;27.932;2023-02-01T00:38:28;19.73;;;7.95;;
40993;SDS011;26722;43.212;27.932;2023-02-01T00:40:56;24.15;;;9.85;;
40993;SDS011;26722;43.212;27.932;2023-02-01T00:43:27;21.17;;;9.23;;
40993;SDS011;26722;43.212;27.932;2023-02-01T00:45:53;17.17;;;8.63;;
40993;SDS011;26722;43.212;27.932;2023-02-01T00:48:18;21.58;;;9.05;;
40993;SDS011;26722;43.212;27.932;2023-02-01T00:50:44;16.38;;;7.35;;
40993;SDS011;26722;43.212;27.932;2023-02-01T00:53:10;25.20;;;11.57;;
40993;SDS011;26722;43.212;27.932;2023-02-01T00:55:36;20.15;;;8.73;;
40993;SDS011;26722;43.212;27.932;2023-02-01T00:58:02;20.95;;;9.73;;
40993;SDS011;26722;43.212;27.932;2023-02-01T01:00:28;21.50;;;10.23;;
40993;SDS011;26722;43.212;27.932;2023-02-01T01:02:54;19.75;;;8.85;;
40993;SDS011;26722;43.212;27.932;2023-02-01T01:05:19;16.88;;;8.05;;
40993;SDS011;26722;43.212;27.932;2023-02-01T01:07:45;18.38;;;9.05;;
40993;SDS011;26722;43.212;27.932;2023-02-01T01:10:10;18.65;;;8.25;;
40993;SDS011;26722;43.212;27.932;2023-02-01T01:12:36;14.45;;;7.25;;
40993;SDS011;26722;43.212;27.932;2023-02-01T01:15:01;19.55;;;8.60;;
40993;SDS011;26722;43.212;27.932;2023-02-01T01:17:27;18.27;;;9.40;;
40993;SDS011;26722;43.212;27.932;2023-02-01T01:19:52;23.90;;;10.90;;
40993;SDS011;26722;43.212;27.932;2023-02-01T01:22:18;23.33;;;10.68;;
40993;SDS011;26722;43.212;27.932;2023-02-01T01:24:43;26.33;;;11.85;;
40993;SDS011;26722;43.212;27.932;2023-02-01T01:27:09;26.33;;;12.63;;
40993;SDS011;26722;43.212;27.932;2023-02-01T01:29:34;22.67;;;10.65;;
40993;SDS011;26722;43.212;27.932;2023-02-01T01:32:00;23.95;;;10.15;;
40993;SDS011;26722;43.212;27.932;2023-02-01T01:34:25;24.45;;;11.82;;
40993;SDS011;26722;43.212;27.932;2023-02-01T01:36:51;25.00;;;11.95;;
40993;SDS011;26722;43.212;27.932;2023-02-01T01:39:16;23.33;;;11.52;;
40993;SDS011;26722;43.212;27.932;2023-02-01T01:41:41;27.08;;;11.73;;
40993;SDS011;26722;43.212;27.932;2023-02-01T01:44:55;23.95;;;11.85;;
40993;SDS011;26722;43.212;27.932;2023-02-01T01:47:11;24.77;;;11.60;;
40993;SDS011;26722;43.212;27.932;2023-02-01T01:49:37;24.25;;;12.02;;
40993;SDS011;26722;43.212;27.932;2023-02-01T01:52:03;24.67;;;11.57;;
40993;SDS011;26722;43.212;27.932;2023-02-01T01:54:30;29.75;;;12.95;;
40993;SDS011;26722;43.212;27.932;2023-02-01T01:57:01;27.10;;;12.70;;
40993;SDS011;26722;43.212;27.932;2023-02-01T01:59:31;28.67;;;12.60;;
40993;SDS011;26722;43.212;27.932;2023-02-01T02:02:00;23.50;;;11.50;;
40993;SDS011;26722;43.212;27.932;2023-02-01T02:04:26;26.75;;;12.55;;
40993;SDS011;26722;43.212;27.932;2023-02-01T02:06:54;25.27;;;11.80;;
40993;SDS011;26722;43.212;27.932;2023-02-01T02:09:25;25.65;;;11.55;;
40993;SDS011;26722;43.212;27.932;2023-02-01T02:11:51;23.35;;;11.50;;
40993;SDS011;26722;43.212;27.932;2023-02-01T02:14:17;27.20;;;12.38;;
40993;SDS011;26722;43.212;27.932;2023-02-01T02:16:48;23.83;;;12.35;;
40993;SDS011;26722;43.212;27.932;2023-02-01T02:51:10;27.00;;;11.38;;
40993;SDS011;26722;43.212;27.932;2023-02-01T02:54:31;22.98;;;10.38;;
40993;SDS011;26722;43.212;27.932;2023-02-01T02:57:24;30.05;;;12.23;;
40993;SDS011;26722;43.212;27.932;2023-02-01T03:00:18;28.23;;;12.38;;
40993;SDS011;26722;43.212;27.932;2023-02-01T03:03:06;25.52;;;12.40;;
40993;SDS011;26722;43.212;27.932;2023-02-01T03:05:51;28.30;;;12.10;;
40993;SDS011;26722;43.212;27.932;2023-02-01T03:08:23;23.85;;;12.73;;
40993;SDS011;26722;43.212;27.932;2023-02-01T03:10:57;26.45;;;12.70;;
40993;SDS011;26722;43.212;27.932;2023-02-01T03:16:17;28.15;;;12.43;;
40993;SDS011;26722;43.212;27.932;2023-02-01T03:21:17;30.55;;;14.45;;
40993;SDS011;26722;43.212;27.932;2023-02-01T03:23:47;32.83;;;14.50;;
40993;SDS011;26722;43.212;27.932;2023-02-01T03:26:14;31.70;;;14.02;;
40993;SDS011;26722;43.212;27.932;2023-02-01T03:28:45;33.90;;;14.55;;
40993;SDS011;26722;43.212;27.932;2023-02-01T03:31:19;31.40;;;13.95;;
40993;SDS011;26722;43.212;27.932;2023-02-01T03:33:45;33.10;;;13.75;;
40993;SDS011;26722;43.212;27.932;2023-02-01T03:36:20;22.80;;;9.63;;
40993;SDS011;26722;43.212;27.932;2023-02-01T03:38:55;29.13;;;13.80;;
40993;SDS011;26722;43.212;27.932;2023-02-01T03:44:24;28.52;;;13.63;;
40993;SDS011;26722;43.212;27.932;2023-02-01T03:49:58;28.13;;;12.55;;
40993;SDS011;26722;43.212;27.932;2023-02-01T03:53:01;30.10;;;14.30;;
40993;SDS011;26722;43.212;27.932;2023-02-01T03:55:22;29.40;;;13.05;;
40993;SDS011;26722;43.212;27.932;2023-02-01T03:57:53;29.08;;;12.95;;
40993;SDS011;26722;43.212;27.932;2023-02-01T04:00:24;31.77;;;13.60;;
40993;SDS011;26722;43.212;27.932;2023-02-01T04:02:51;30.58;;;14.32;;
40993;SDS011;26722;43.212;27.932;2023-02-01T04:05:18;28.98;;;14.02;;
40993;SDS011;26722;43.212;27.932;2023-02-01T04:07:43;27.70;;;14.10;;
40993;SDS011;26722;43.212;27.932;2023-02-01T04:10:09;33.45;;;14.00;;
40993;SDS011;26722;43.212;27.932;2023-02-01T04:12:35;31.15;;;14.68;;
40993;SDS011;26722;43.212;27.932;2023-02-01T04:15:01;31.75;;;14.88;;
40993;SDS011;26722;43.212;27.932;2023-02-01T04:17:27;32.50;;;14.70;;
40993;SDS011;26722;43.212;27.932;2023-02-01T04:19:53;31.67;;;14.95;;
40993;SDS011;26722;43.212;27.932;2023-02-01T04:22:18;30.35;;;14.30;;
40993;SDS011;26722;43.212;27.932;2023-02-01T04:24:43;34.05;;;12.70;;
40993;SDS011;26722;43.212;27.932;2023-02-01T04:27:09;30.88;;;14.32;;
40993;SDS011;26722;43.212;27.932;2023-02-01T04:29:34;31.05;;;13.73;;
40993;SDS011;26722;43.212;27.932;2023-02-01T04:32:00;30.70;;;13.55;;
40993;SDS011;26722;43.212;27.932;2023-02-01T04:34:25;32.05;;;15.43;;
40993;SDS011;26722;43.212;27.932;2023-02-01T04:36:51;33.17;;;14.13;;
40993;SDS011;26722;43.212;27.932;2023-02-01T04:39:16;30.42;;;12.57;;
40993;SDS011;26722;43.212;27.932;2023-02-01T04:41:42;32.95;;;14.98;;
40993;SDS011;26722;43.212;27.932;2023-02-01T04:44:12;34.22;;;15.60;;
40993;SDS011;26722;43.212;27.932;2023-02-01T04:46:42;37.30;;;15.55;;
40993;SDS011;26722;43.212;27.932;2023-02-01T04:49:12;32.15;;;14.75;;
40993;SDS011;26722;43.212;27.932;2023-02-01T04:51:38;24.27;;;10.48;;
40993;SDS011;26722;43.212;27.932;2023-02-01T04:54:04;31.45;;;15.27;;
40993;SDS011;26722;43.212;27.932;2023-02-01T04:56:30;32.47;;;15.50;;
40993;SDS011;26722;43.212;27.932;2023-02-01T04:58:55;28.17;;;13.02;;
40993;SDS011;26722;43.212;27.932;2023-02-01T05:01:21;38.60;;;16.17;;
40993;SDS011;26722;43.212;27.932;2023-02-01T05:03:47;30.38;;;15.30;;
40993;SDS011;26722;43.212;27.932;2023-02-01T05:06:13;40.58;;;17.50;;
40993;SDS011;26722;43.212;27.932;2023-02-01T05:08:39;33.22;;;16.23;;
40993;SDS011;26722;43.212;27.932;2023-02-01T05:11:05;26.13;;;10.43;;
40993;SDS011;26722;43.212;27.932;2023-02-01T05:13:30;30.83;;;14.57;;
40993;SDS011;26722;43.212;27.932;2023-02-01T05:16:14;33.28;;;14.73;;
40993;SDS011;26722;43.212;27.932;2023-02-01T05:18:40;31.58;;;13.90;;
40993;SDS011;26722;43.212;27.932;2023-02-01T05:21:05;34.88;;;16.20;;
40993;SDS011;26722;43.212;27.932;2023-02-01T05:23:31;31.10;;;15.13;;
40993;SDS011;26722;43.212;27.932;2023-02-01T05:26:00;27.35;;;12.57;;
40993;SDS011;26722;43.212;27.932;2023-02-01T05:28:26;34.10;;;16.00;;
40993;SDS011;26722;43.212;27.932;2023-02-01T05:30:53;38.65;;;14.75;;
40993;SDS011;26722;43.212;27.932;2023-02-01T05:33:19;35.78;;;15.30;;
40993;SDS011;26722;43.212;27.932;2023-02-01T05:35:44;37.60;;;16.67;;
40993;SDS011;26722;43.212;27.932;2023-02-01T05:38:09;40.30;;;16.98;;
40993;SDS011;26722;43.212;27.932;2023-02-01T05:40:35;41.78;;;17.70;;
40993;SDS011;26722;43.212;27.932;2023-02-01T05:43:00;30.88;;;14.05;;
40993;SDS011;26722;43.212;27.932;2023-02-01T05:45:26;33.15;;;15.63;;
40993;SDS011;26722;43.212;27.932;2023-02-01T05:47:51;30.45;;;14.60;;
40993;SDS011;26722;43.212;27.932;2023-02-01T05:50:17;29.42;;;15.10;;
40993;SDS011;26722;43.212;27.932;2023-02-01T05:52:42;34.63;;;15.75;;
40993;SDS011;26722;43.212;27.932;2023-02-01T05:55:08;34.45;;;14.80;;
40993;SDS011;26722;43.212;27.932;2023-02-01T05:57:33;28.90;;;14.48;;
40993;SDS011;26722;43.212;27.932;2023-02-01T05:59:59;30.55;;;12.45;;
40993;SDS011;26722;43.212;27.932;2023-02-01T06:02:24;30.85;;;14.25;;
40993;SDS011;26722;43.212;27.932;2023-02-01T06:04:50;28.33;;;14.43;;
40993;SDS011;26722;43.212;27.932;2023-02-01T06:07:16;25.63;;;13.07;;
40993;SDS011;26722;43.212;27.932;2023-02-01T06:09:41;29.77;;;13.90;;
40993;SDS011;26722;43.212;27.932;2023-02-01T06:12:07;29.60;;;13.35;;
40993;SDS011;26722;43.212;27.932;2023-02-01T06:14:32;31.50;;;14.68;;
40993;SDS011;26722;43.212;27.932;2023-02-01T06:16:58;34.58;;;13.43;;
40993;SDS011;26722;43.212;27.932;2023-02-01T06:19:23;29.83;;;13.30;;
40993;SDS011;26722;43.212;27.932;2023-02-01T06:21:49;30.10;;;14.07;;
40993;SDS011;26722;43.212;27.932;2023-02-01T06:24:15;24.00;;;10.18;;
40993;SDS011;26722;43.212;27.932;2023-02-01T06:26:41;30.73;;;13.52;;
40993;SDS011;26722;43.212;27.932;2023-02-01T06:29:07;34.10;;;15.38;;
40993;SDS011;26722;43.212;27.932;2023-02-01T06:31:34;34.15;;;14.52;;
40993;SDS011;26722;43.212;27.932;2023-02-01T06:34:00;33.63;;;14.95;;
40993;SDS011;26722;43.212;27.932;2023-02-01T06:36:25;37.05;;;14.57;;
40993;SDS011;26722;43.212;27.932;2023-02-01T06:38:51;35.85;;;14.95;;
40993;SDS011;26722;43.212;27.932;2023-02-01T06:41:16;33.03;;;15.70;;
40993;SDS011;26722;43.212;27.932;2023-02-01T06:43:42;38.78;;;15.77;;
40993;SDS011;26722;43.212;27.932;2023-02-01T06:46:09;31.27;;;14.48;;
40993;SDS011;26722;43.212;27.932;2023-02-01T06:48:37;30.13;;;14.65;;
40993;SDS011;26722;43.212;27.932;2023-02-01T06:51:02;28.35;;;14.13;;
40993;SDS011;26722;43.212;27.932;2023-02-01T06:53:28;26.23;;;12.30;;
40993;SDS011;26722;43.212;27.932;2023-02-01T06:55:58;26.50;;;12.85;;
40993;SDS011;26722;43.212;27.932;2023-02-01T06:58:31;28.98;;;13.27;;
40993;SDS011;26722;43.212;27.932;2023-02-01T07:00:58;23.75;;;11.55;;
40993;SDS011;26722;43.212;27.932;2023-02-01T07:03:30;24.65;;;11.10;;
40993;SDS011;26722;43.212;27.932;2023-02-01T07:05:56;26.98;;;12.05;;
40993;SDS011;26722;43.212;27.932;2023-02-01T07:08:28;18.75;;;9.25;;
40993;SDS011;26722;43.212;27.932;2023-02-01T07:10:55;22.65;;;10.32;;
40993;SDS011;26722;43.212;27.932;2023-02-01T07:13:20;23.50;;;11.30;;
40993;SDS011;26722;43.212;27.932;2023-02-01T07:15:46;25.00;;;11.57;;
40993;SDS011;26722;43.212;27.932;2023-02-01T07:18:13;27.85;;;11.90;;
40993;SDS011;26722;43.212;27.932;2023-02-01T07:20:39;24.73;;;11.82;;
40993;SDS011;26722;43.212;27.932;2023-02-01T07:23:05;25.30;;;12.00;;
40993;SDS011;26722;43.212;27.932;2023-02-01T07:25:31;20.42;;;9.90;;
40993;SDS011;26722;43.212;27.932;2023-02-01T07:27:57;25.23;;;12.63;;
40993;SDS011;26722;43.212;27.932;2023-02-01T07:30:22;19.13;;;10.25;;
40993;SDS011;26722;43.212;27.932;2023-02-01T07:32:48;23.90;;;11.18;;
40993;SDS011;26722;43.212;27.932;2023-02-01T07:35:14;28.55;;;13.68;;
40993;SDS011;26722;43.212;27.932;2023-02-01T07:37:39;32.10;;;14.65;;
40993;SDS011;26722;43.212;27.932;2023-02-01T07:40:05;27.80;;;13.98;;
40993;SDS011;26722;43.212;27.932;2023-02-01T07:42:31;26.98;;;14.23;;
40993;SDS011;26722;43.212;27.932;2023-02-01T07:44:56;28.85;;;14.13;;
40993;SDS011;26722;43.212;27.932;2023-02-01T07:47:22;25.70;;;13.40;;
40993;SDS011;26722;43.212;27.932;2023-02-01T07:49:47;24.38;;;10.75;;
40993;SDS011;26722;43.212;27.932;2023-02-01T07:52:13;34.22;;;14.55;;
40993;SDS011;26722;43.212;27.932;2023-02-01T07:54:40;30.63;;;15.65;;
40993;SDS011;26722;43.212;27.932;2023-02-01T07:57:06;30.88;;;13.63;;
40993;SDS011;26722;43.212;27.932;2023-02-01T07:59:33;33.45;;;15.45;;
40993;SDS011;26722;43.212;27.932;2023-02-01T08:01:59;24.10;;;12.57;;
40993;SDS011;26722;43.212;27.932;2023-02-01T08:04:24;32.15;;;15.38;;
40993;SDS011;26722;43.212;27.932;2023-02-01T08:06:50;27.75;;;13.43;;
40993;SDS011;26722;43.212;27.932;2023-02-01T08:09:15;29.33;;;14.48;;
40993;SDS011;26722;43.212;27.932;2023-02-01T08:11:41;29.33;;;15.02;;
40993;SDS011;26722;43.212;27.932;2023-02-01T08:14:06;32.03;;;14.13;;
40993;SDS011;26722;43.212;27.932;2023-02-01T08:16:32;27.95;;;12.75;;
40993;SDS011;26722;43.212;27.932;2023-02-01T08:19:00;27.92;;;14.77;;
40993;SDS011;26722;43.212;27.932;2023-02-01T08:21:27;26.77;;;13.88;;
40993;SDS011;26722;43.212;27.932;2023-02-01T08:24:02;26.05;;;13.20;;
40993;SDS011;26722;43.212;27.932;2023-02-01T08:26:31;30.88;;;14.57;;
40993;SDS011;26722;43.212;27.932;2023-02-01T08:28:58;33.55;;;13.98;;
40993;SDS011;26722;43.212;27.932;2023-02-01T08:31:25;32.20;;;14.48;;
40993;SDS011;26722;43.212;27.932;2023-02-01T08:33:53;30.55;;;14.57;;
40993;SDS011;26722;43.212;27.932;2023-02-01T08:36:20;24.92;;;12.88;;
40993;SDS011;26722;43.212;27.932;2023-02-01T08:38:46;29.25;;;14.18;;
40993;SDS011;26722;43.212;27.932;2023-02-01T08:41:13;24.65;;;12.27;;
40993;SDS011;26722;43.212;27.932;2023-02-01T08:43:40;29.02;;;10.95;;
40993;SDS011;26722;43.212;27.932;2023-02-01T08:46:07;18.33;;;9.65;;
40993;SDS011;26722;43.212;27.932;2023-02-01T08:48:33;27.45;;;13.85;;
40993;SDS011;26722;43.212;27.932;2023-02-01T08:51:00;19.27;;;10.90;;
40993;SDS011;26722;43.212;27.932;2023-02-01T08:53:28;18.27;;;10.25;;
40993;SDS011;26722;43.212;27.932;2023-02-01T08:55:54;23.20;;;11.32;;
40993;SDS011;26722;43.212;27.932;2023-02-01T08:58:19;26.52;;;11.32;;
40993;SDS011;26722;43.212;27.932;2023-02-01T09:00:46;24.65;;;12.65;;
40993;SDS011;26722;43.212;27.932;2023-02-01T09:03:13;26.55;;;13.70;;
40993;SDS011;26722;43.212;27.932;2023-02-01T09:05:39;27.08;;;12.98;;
40993;SDS011;26722;43.212;27.932;2023-02-01T09:08:05;22.90;;;12.75;;
40993;SDS011;26722;43.212;27.932;2023-02-01T09:10:30;22.27;;;11.18;;
40993;SDS011;26722;43.212;27.932;2023-02-01T09:12:56;18.65;;;10.70;;
40993;SDS011;26722;43.212;27.932;2023-02-01T09:15:22;21.38;;;10.95;;
40993;SDS011;26722;43.212;27.932;2023-02-01T09:17:47;19.65;;;9.50;;
40993;SDS011;26722;43.212;27.932;2023-02-01T09:20:14;26.08;;;12.20;;
40993;SDS011;26722;43.212;27.932;2023-02-01T09:22:40;29.45;;;13.68;;
40993;SDS011;26722;43.212;27.932;2023-02-01T09:25:06;22.80;;;11.50;;
40993;SDS011;26722;43.212;27.932;2023-02-01T09:27:32;23.98;;;12.48;;
40993;SDS011;26722;43.212;27.932;2023-02-01T09:29:58;22.65;;;10.55;;
40993;SDS011;26722;43.212;27.932;2023-02-01T09:32:23;17.48;;;9.48;;
40993;SDS011;26722;43.212;27.932;2023-02-01T09:34:49;15.32;;;8.90;;
40993;SDS011;26722;43.212;27.932;2023-02-01T09:37:16;24.27;;;9.70;;
40993;SDS011;26722;43.212;27.932;2023-02-01T09:39:42;18.45;;;9.70;;
40993;SDS011;26722;43.212;27.932;2023-02-01T09:45:17;20.13;;;9.25;;
40993;SDS011;26722;43.212;27.932;2023-02-01T09:47:53;14.27;;;8.25;;
40993;SDS011;26722;43.212;27.932;2023-02-01T09:50:22;14.45;;;7.75;;
40993;SDS011;26722;43.212;27.932;2023-02-01T09:53:12;18.80;;;7.43;;
40993;SDS011;26722;43.212;27.932;2023-02-01T09:55:49;15.70;;;8.10;;
40993;SDS011;26722;43.212;27.932;2023-02-01T10:01:01;14.88;;;7.70;;
40993;SDS011;26722;43.212;27.932;2023-02-01T10:03:29;15.98;;;7.65;;
40993;SDS011;26722;43.212;27.932;2023-02-01T10:08:29;15.52;;;7.55;;
40993;SDS011;26722;43.212;27.932;2023-02-01T10:12:27;13.70;;;6.10;;
40993;SDS011;26722;43.212;27.932;2023-02-01T10:22:42;14.48;;;6.80;;
40993;SDS011;26722;43.212;27.932;2023-02-01T10:25:21;12.77;;;6.30;;
40993;SDS011;26722;43.212;27.932;2023-02-01T10:27:51;14.43;;;6.90;;
40993;SDS011;26722;43.212;27.932;2023-02-01T10:32:48;12.10;;;6.45;;
40993;SDS011;26722;43.212;27.932;2023-02-01T10:35:24;13.07;;;6.68;;
40993;SDS011;26722;43.212;27.932;2023-02-01T10:37:54;14.32;;;6.95;;
40993;SDS011;26722;43.212;27.932;2023-02-01T10:40:22;18.73;;;7.25;;
40993;SDS011;26722;43.212;27.932;2023-02-01T10:42:50;10.32;;;6.38;;
40993;SDS011;26722;43.212;27.932;2023-02-01T10:45:20;12.60;;;6.43;;
40993;SDS011;26722;43.212;27.932;2023-02-01T10:47:49;14.20;;;7.47;;
40993;SDS011;26722;43.212;27.932;2023-02-01T10:52:53;11.35;;;6.18;;
40993;SDS011;26722;43.212;27.932;2023-02-01T10:57:58;12.48;;;5.47;;
40993;SDS011;26722;43.212;27.932;2023-02-01T11:00:26;11.48;;;6.70;;
40993;SDS011;26722;43.212;27.932;2023-02-01T11:02:52;16.88;;;6.63;;
40993;SDS011;26722;43.212;27.932;2023-02-01T11:05:19;15.20;;;6.30;;
40993;SDS011;26722;43.212;27.932;2023-02-01T11:07:51;12.82;;;5.80;;
40993;SDS011;26722;43.212;27.932;2023-02-01T11:10:38;12.50;;;6.43;;
40993;SDS011;26722;43.212;27.932;2023-02-01T11:13:07;10.23;;;5.88;;
40993;SDS011;26722;43.212;27.932;2023-02-01T11:15:38;13.85;;;5.78;;
40993;SDS011;26722;43.212;27.932;2023-02-01T11:18:16;13.52;;;5.50;;
40993;SDS011;26722;43.212;27.932;2023-02-01T11:20:44;13.38;;;5.53;;
40993;SDS011;26722;43.212;27.932;2023-02-01T11:23:24;10.65;;;5.70;;
40993;SDS011;26722;43.212;27.932;2023-02-01T11:25:55;8.35;;;4.95;;
40993;SDS011;26722;43.212;27.932;2023-02-01T11:28:27;14.07;;;4.70;;
40993;SDS011;26722;43.212;27.932;2023-02-01T11:30:58;9.18;;;5.10;;
40993;SDS011;26722;43.212;27.932;2023-02-01T11:33:29;16.20;;;4.70;;
40993;SDS011;26722;43.212;27.932;2023-02-01T11:36:00;9.95;;;5.20;;
40993;SDS011;26722;43.212;27.932;2023-02-01T11:38:33;11.23;;;5.10;;
40993;SDS011;26722;43.212;27.932;2023-02-01T11:43:49;12.60;;;5.30;;
40993;SDS011;26722;43.212;27.932;2023-02-01T11:46:17;9.68;;;4.47;;
40993;SDS011;26722;43.212;27.932;2023-02-01T11:48:50;17.23;;;4.97;;
40993;SDS011;26722;43.212;27.932;2023-02-01T12:02:09;11.32;;;4.72;;
40993;SDS011;26722;43.212;27.932;2023-02-01T12:19:21;8.82;;;4.50;;
40993;SDS011;26722;43.212;27.932;2023-02-01T12:24:48;7.13;;;4.47;;
40993;SDS011;26722;43.212;27.932;2023-02-01T12:46:53;10.52;;;4.50;;
40993;SDS011;26722;43.212;27.932;2023-02-01T12:52:09;8.90;;;4.35;;
40993;SDS011;26722;43.212;27.932;2023-02-01T12:57:25;8.60;;;3.95;;
40993;SDS011;26722;43.212;27.932;2023-02-01T12:59:56;7.57;;;4.40;;
40993;SDS011;26722;43.212;27.932;2023-02-01T13:02:40;6.78;;;4.00;;
40993;SDS011;26722;43.212;27.932;2023-02-01T13:05:17;6.47;;;3.72;;
40993;SDS011;26722;43.212;27.932;2023-02-01T13:07:47;7.38;;;4.15;;
40993;SDS011;26722;43.212;27.932;2023-02-01T13:10:18;10.68;;;4.63;;
40993;SDS011;26722;43.212;27.932;2023-02-01T13:15:42;8.60;;;4.32;;
40993;SDS011;26722;43.212;27.932;2023-02-01T13:18:16;9.75;;;4.93;;
40993;SDS011;26722;43.212;27.932;2023-02-01T13:23:34;9.13;;;4.15;;
40993;SDS011;26722;43.212;27.932;2023-02-01T13:26:02;6.50;;;4.00;;
40993;SDS011;26722;43.212;27.932;2023-02-01T13:29:13;9.20;;;3.92;;
40993;SDS011;26722;43.212;27.932;2023-02-01T13:31:25;11.68;;;4.63;;
40993;SDS011;26722;43.212;27.932;2023-02-01T13:34:00;7.95;;;3.75;;
40993;SDS011;26722;43.212;27.932;2023-02-01T13:39:38;8.75;;;3.47;;
40993;SDS011;26722;43.212;27.932;2023-02-01T13:45:01;8.38;;;3.90;;
40993;SDS011;26722;43.212;27.932;2023-02-01T13:47:49;9.65;;;4.03;;
40993;SDS011;26722;43.212;27.932;2023-02-01T13:50:27;8.35;;;3.72;;
40993;SDS011;26722;43.212;27.932;2023-02-01T13:53:04;9.45;;;3.60;;
40993;SDS011;26722;43.212;27.932;2023-02-01T13:55:40;6.18;;;3.38;;
40993;SDS011;26722;43.212;27.932;2023-02-01T13:58:21;8.52;;;3.00;;
40993;SDS011;26722;43.212;27.932;2023-02-01T14:04:02;12.23;;;4.03;;
40993;SDS011;26722;43.212;27.932;2023-02-01T14:11:37;8.27;;;3.72;;
40993;SDS011;26722;43.212;27.932;2023-02-01T14:16:44;8.95;;;3.92;;
40993;SDS011;26722;43.212;27.932;2023-02-01T14:19:51;11.88;;;4.30;;
40993;SDS011;26722;43.212;27.932;2023-02-01T14:23:04;9.02;;;4.18;;
40993;SDS011;26722;43.212;27.932;2023-02-01T14:25:37;6.80;;;3.70;;
40993;SDS011;26722;43.212;27.932;2023-02-01T14:28:09;8.80;;;3.75;;
40993;SDS011;26722;43.212;27.932;2023-02-01T14:30:37;7.82;;;3.45;;
40993;SDS011;26722;43.212;27.932;2023-02-01T14:33:11;8.23;;;3.97;;
40993;SDS011;26722;43.212;27.932;2023-02-01T14:35:43;6.10;;;3.42;;
40993;SDS011;26722;43.212;27.932;2023-02-01T14:38:27;6.97;;;3.88;;
40993;SDS011;26722;43.212;27.932;2023-02-01T14:41:09;9.23;;;3.40;;
40993;SDS011;26722;43.212;27.932;2023-02-01T14:49:29;7.25;;;3.88;;
40993;SDS011;26722;43.212;27.932;2023-02-01T14:51:57;11.32;;;4.20;;
40993;SDS011;26722;43.212;27.932;2023-02-01T14:54:23;9.63;;;4.47;;
40993;SDS011;26722;43.212;27.932;2023-02-01T14:56:50;8.93;;;4.38;;
40993;SDS011;26722;43.212;27.932;2023-02-01T14:59:18;12.25;;;4.82;;
40993;SDS011;26722;43.212;27.932;2023-02-01T15:01:52;13.27;;;5.00;;
40993;SDS011;26722;43.212;27.932;2023-02-01T15:04:24;10.15;;;5.53;;
40993;SDS011;26722;43.212;27.932;2023-02-01T15:09:32;17.08;;;7.20;;
40993;SDS011;26722;43.212;27.932;2023-02-01T15:14:46;20.00;;;8.55;;
40993;SDS011;26722;43.212;27.932;2023-02-01T15:17:28;22.90;;;9.25;;
40993;SDS011;26722;43.212;27.932;2023-02-01T15:22:40;19.30;;;9.68;;
40993;SDS011;26722;43.212;27.932;2023-02-01T15:25:24;22.30;;;10.82;;
40993;SDS011;26722;43.212;27.932;2023-02-01T15:27:54;32.38;;;13.55;;
40993;SDS011;26722;43.212;27.932;2023-02-01T15:30:28;34.78;;;13.00;;
40993;SDS011;26722;43.212;27.932;2023-02-01T15:33:06;23.63;;;11.70;;
40993;SDS011;26722;43.212;27.932;2023-02-01T15:35:43;28.73;;;13.10;;
40993;SDS011;26722;43.212;27.932;2023-02-01T15:43:43;24.30;;;11.38;;
40993;SDS011;26722;43.212;27.932;2023-02-01T15:46:23;29.40;;;13.35;;
40993;SDS011;26722;43.212;27.932;2023-02-01T15:48:56;27.90;;;12.13;;
40993;SDS011;26722;43.212;27.932;2023-02-01T15:51:22;24.90;;;11.65;;
40993;SDS011;26722;43.212;27.932;2023-02-01T15:53:55;23.20;;;10.00;;
40993;SDS011;26722;43.212;27.932;2023-02-01T15:56:25;27.88;;;11.10;;
40993;SDS011;26722;43.212;27.932;2023-02-01T15:58:59;22.52;;;10.05;;
40993;SDS011;26722;43.212;27.932;2023-02-01T16:01:27;22.15;;;9.35;;
40993;SDS011;26722;43.212;27.932;2023-02-01T16:06:56;17.98;;;8.13;;
40993;SDS011;26722;43.212;27.932;2023-02-01T16:09:24;23.50;;;8.90;;
40993;SDS011;26722;43.212;27.932;2023-02-01T16:12:00;15.27;;;7.78;;
40993;SDS011;26722;43.212;27.932;2023-02-01T16:14:27;18.40;;;7.10;;
40993;SDS011;26722;43.212;27.932;2023-02-01T16:16:56;17.88;;;7.05;;
40993;SDS011;26722;43.212;27.932;2023-02-01T16:19:23;22.70;;;8.32;;
40993;SDS011;26722;43.212;27.932;2023-02-01T16:21:53;16.70;;;7.18;;
40993;SDS011;26722;43.212;27.932;2023-02-01T16:24:19;17.77;;;7.35;;
40993;SDS011;26722;43.212;27.932;2023-02-01T16:26:48;19.30;;;7.43;;
40993;SDS011;26722;43.212;27.932;2023-02-01T16:29:13;16.45;;;6.97;;
40993;SDS011;26722;43.212;27.932;2023-02-01T16:31:40;19.05;;;7.22;;
40993;SDS011;26722;43.212;27.932;2023-02-01T16:34:06;20.52;;;8.25;;
40993;SDS011;26722;43.212;27.932;2023-02-01T16:36:39;17.20;;;7.65;;
40993;SDS011;26722;43.212;27.932;2023-02-01T16:39:04;23.38;;;8.20;;
40993;SDS011;26722;43.212;27.932;2023-02-01T16:41:30;21.42;;;8.52;;
40993;SDS011;26722;43.212;27.932;2023-02-01T16:43:55;25.50;;;9.45;;
40993;SDS011;26722;43.212;27.932;2023-02-01T16:46:23;20.75;;;8.82;;
40993;SDS011;26722;43.212;27.932;2023-02-01T16:48:55;15.60;;;8.07;;
40993;SDS011;26722;43.212;27.932;2023-02-01T16:51:23;23.13;;;9.52;;
40993;SDS011;26722;43.212;27.932;2023-02-01T16:53:51;19.60;;;8.30;;
40993;SDS011;26722;43.212;27.932;2023-02-01T16:56:20;20.90;;;9.25;;
40993;SDS011;26722;43.212;27.932;2023-02-01T16:58:53;19.92;;;8.95;;
40993;SDS011;26722;43.212;27.932;2023-02-01T17:01:19;20.00;;;10.00;;
40993;SDS011;26722;43.212;27.932;2023-02-01T17:03:45;25.67;;;10.80;;
40993;SDS011;26722;43.212;27.932;2023-02-01T17:06:12;19.85;;;11.35;;
40993;SDS011;26722;43.212;27.932;2023-02-01T17:08:41;19.55;;;9.63;;
40993;SDS011;26722;43.212;27.932;2023-02-01T17:11:09;25.30;;;11.68;;
40993;SDS011;26722;43.212;27.932;2023-02-01T17:13:37;25.48;;;11.75;;
40993;SDS011;26722;43.212;27.932;2023-02-01T17:16:04;31.63;;;12.90;;
40993;SDS011;26722;43.212;27.932;2023-02-01T17:19:06;35.53;;;15.57;;